createdAt,value
2018-03-19T00:02:15.772Z,4.78
2018-03-19T00:04:43.646Z,3.10
2018-03-19T00:07:11.906Z,3.62
2018-03-19T00:09:39.520Z,3.65
2018-03-19T00:12:07.846Z,3.83
2018-03-19T00:14:35.368Z,3.67
2018-03-19T00:17:02.861Z,4.93
2018-03-19T00:19:30.391Z,5.68
2018-03-19T00:21:57.887Z,4.55
2018-03-19T00:24:25.381Z,3.60
2018-03-19T00:26:52.863Z,3.40
2018-03-19T00:29:20.349Z,4.05
2018-03-19T00:31:47.848Z,5.85
2018-03-19T00:34:15.329Z,4.87
2018-03-19T00:36:42.815Z,5.65
2018-03-19T00:39:10.308Z,4.40
2018-03-19T00:41:37.809Z,5.07
2018-03-19T00:44:05.359Z,4.62
2018-03-19T00:46:32.840Z,4.87
2018-03-19T00:49:00.563Z,4.35
2018-03-19T00:51:28.456Z,5.15
2018-03-19T00:53:55.943Z,6.78
2018-03-19T00:56:23.476Z,3.85
2018-03-19T00:58:50.960Z,6.07
2018-03-19T01:01:18.444Z,6.40
2018-03-19T01:03:46.748Z,5.50
2018-03-19T01:06:14.226Z,3.70
2018-03-19T01:08:41.713Z,6.00
2018-03-19T01:11:09.217Z,4.60
2018-03-19T01:13:36.720Z,6.70
2018-03-19T01:16:04.232Z,6.65
2018-03-19T01:18:31.719Z,6.43
2018-03-19T01:20:59.241Z,6.25
2018-03-19T01:23:26.734Z,5.75
2018-03-19T01:25:54.242Z,6.10
2018-03-19T01:28:21.732Z,5.37
2018-03-19T01:30:49.226Z,5.93
2018-03-19T01:33:16.928Z,4.95
2018-03-19T01:35:44.401Z,6.10
2018-03-19T01:38:12.688Z,6.68
2018-03-19T01:40:40.176Z,3.00
2018-03-19T01:43:07.651Z,5.37
2018-03-19T01:45:35.361Z,6.03
2018-03-19T01:48:02.839Z,4.55
2018-03-19T01:50:30.544Z,6.12
2018-03-19T01:52:58.786Z,5.12
2018-03-19T01:55:26.278Z,5.95
2018-03-19T01:57:54.569Z,5.80
2018-03-19T02:00:22.051Z,2.90
2018-03-19T02:02:49.757Z,4.50
2018-03-19T02:05:17.446Z,6.60
2018-03-19T02:07:44.934Z,4.28
2018-03-19T02:10:12.438Z,4.65
2018-03-19T02:12:40.669Z,3.72
2018-03-19T02:15:09.318Z,4.93
2018-03-19T02:17:36.811Z,5.55
2018-03-19T02:20:04.298Z,4.78
2018-03-19T02:22:31.834Z,3.75
2018-03-19T02:24:59.695Z,4.82
2018-03-19T02:27:27.185Z,5.40
2018-03-19T02:29:54.672Z,5.65
2018-03-19T02:32:22.197Z,5.95
2018-03-19T02:34:49.725Z,4.20
2018-03-19T02:37:17.233Z,4.00
2018-03-19T02:39:44.847Z,6.50
2018-03-19T02:42:12.523Z,4.60
2018-03-19T02:44:40.040Z,4.65
2018-03-19T02:47:07.549Z,5.10
2018-03-19T02:49:35.028Z,5.80
2018-03-19T02:52:02.753Z,6.80
2018-03-19T02:54:30.256Z,5.50
2018-03-19T02:56:58.534Z,4.97
2018-03-19T02:59:26.788Z,4.57
2018-03-19T03:01:55.315Z,5.70
2018-03-19T03:04:22.839Z,5.45
2018-03-19T03:06:50.344Z,4.28
2018-03-19T03:09:18.666Z,5.30
2018-03-19T03:11:46.933Z,5.72
2018-03-19T03:14:14.437Z,6.78
2018-03-19T03:16:42.709Z,4.37
2018-03-19T03:19:10.233Z,4.85
2018-03-19T03:21:41.189Z,5.47
2018-03-19T03:24:08.734Z,6.45
2018-03-19T03:26:36.304Z,4.00
2018-03-19T03:29:06.338Z,5.93
2018-03-19T03:31:34.106Z,5.37
2018-03-19T03:34:01.587Z,3.03
2018-03-19T03:36:29.318Z,5.12
2018-03-19T03:38:56.833Z,4.60
2018-03-19T03:41:24.336Z,4.55
2018-03-19T03:43:51.843Z,3.97
2018-03-19T03:46:19.335Z,2.28
2018-03-19T03:48:47.066Z,6.03
2018-03-19T03:51:14.557Z,6.32
2018-03-19T03:53:43.076Z,7.25
2018-03-19T03:56:10.577Z,7.15
2018-03-19T03:58:38.127Z,6.00
2018-03-19T04:01:05.625Z,5.35
2018-03-19T04:03:33.108Z,6.22
2018-03-19T04:06:01.090Z,5.20
2018-03-19T04:08:28.587Z,3.60
2018-03-19T04:10:56.960Z,7.47
2018-03-19T04:13:24.476Z,5.60
2018-03-19T04:15:51.989Z,4.95
2018-03-19T04:18:20.260Z,4.43
2018-03-19T04:20:48.503Z,3.15
2018-03-19T04:23:16.252Z,6.60
2018-03-19T04:25:43.803Z,5.03
2018-03-19T04:28:11.284Z,5.28
2018-03-19T04:30:38.890Z,7.32
2018-03-19T04:33:07.198Z,5.30
2018-03-19T04:35:34.707Z,5.70
2018-03-19T04:38:03.258Z,6.10
2018-03-19T04:40:31.023Z,5.15
2018-03-19T04:42:58.590Z,6.10
2018-03-19T04:45:26.062Z,6.12
2018-03-19T04:47:53.573Z,5.70
2018-03-19T04:50:21.110Z,4.82
2018-03-19T04:52:48.615Z,5.10
2018-03-19T04:55:16.188Z,3.15
2018-03-19T04:57:43.706Z,5.70
2018-03-19T05:00:11.223Z,5.10
2018-03-19T05:02:38.743Z,4.60
2018-03-19T05:05:06.293Z,5.25
2018-03-19T05:07:33.796Z,4.90
2018-03-19T05:10:01.702Z,4.95
2018-03-19T05:12:29.204Z,4.03
2018-03-19T05:14:56.711Z,4.87
2018-03-19T05:17:24.227Z,5.70
2018-03-19T05:19:51.775Z,4.40
2018-03-19T05:22:19.287Z,6.30
2018-03-19T05:24:46.794Z,3.58
2018-03-19T05:27:14.281Z,3.85
2018-03-19T05:29:41.773Z,3.87
2018-03-19T05:32:09.279Z,4.30
2018-03-19T05:34:36.787Z,4.50
2018-03-19T05:37:04.299Z,3.37
2018-03-19T05:39:32.567Z,4.40
2018-03-19T05:42:00.102Z,4.07
2018-03-19T05:44:27.630Z,5.82
2018-03-19T05:46:55.425Z,5.72
2018-03-19T05:49:22.962Z,6.28
2018-03-19T05:51:50.469Z,4.93
2018-03-19T05:54:17.956Z,6.12
2018-03-19T05:56:45.483Z,4.37
2018-03-19T05:59:13.771Z,4.25
2018-03-19T06:01:41.294Z,5.80
2018-03-19T06:04:08.803Z,5.75
2018-03-19T06:06:36.268Z,5.82
2018-03-19T06:09:04.303Z,3.87
2018-03-19T06:11:31.946Z,5.10
2018-03-19T06:13:59.437Z,5.85
2018-03-19T06:16:27.730Z,5.10
2018-03-19T06:18:55.208Z,5.10
2018-03-19T06:21:22.717Z,6.28
2018-03-19T06:23:50.965Z,5.78
2018-03-19T06:26:18.471Z,7.07
2018-03-19T06:28:47.700Z,6.68
2018-03-19T06:31:15.416Z,5.50
2018-03-19T06:33:43.758Z,5.07
2018-03-19T06:36:11.489Z,4.50
2018-03-19T06:38:38.998Z,6.95
2018-03-19T06:41:06.503Z,4.35
2018-03-19T06:43:34.752Z,3.35
2018-03-19T06:46:03.067Z,5.65
2018-03-19T06:48:30.568Z,5.72
2018-03-19T06:50:58.093Z,6.53
2018-03-19T06:53:25.606Z,5.72
2018-03-19T06:55:53.336Z,5.07
2018-03-19T06:58:20.868Z,6.60
2018-03-19T07:00:48.371Z,6.00
2018-03-19T07:03:15.880Z,6.30
2018-03-19T07:05:43.678Z,5.18
2018-03-19T07:08:11.415Z,4.62
2018-03-19T07:10:38.959Z,4.50
2018-03-19T07:13:06.529Z,3.55
2018-03-19T07:15:34.064Z,3.40
2018-03-19T07:18:01.617Z,4.75
2018-03-19T07:20:29.112Z,5.68
2018-03-19T07:22:56.659Z,7.72
2018-03-19T07:25:24.166Z,6.00
2018-03-19T07:27:51.663Z,6.55
2018-03-19T07:30:19.178Z,6.12
2018-03-19T07:32:46.662Z,3.92
2018-03-19T07:35:14.197Z,5.68
2018-03-19T07:37:41.710Z,4.68
2018-03-19T07:40:09.274Z,4.05
2018-03-19T07:42:37.551Z,5.22
2018-03-19T07:45:05.023Z,4.85
2018-03-19T07:47:32.570Z,6.05
2018-03-19T07:50:00.811Z,6.78
2018-03-19T07:52:28.327Z,6.20
2018-03-19T07:54:55.856Z,7.00
2018-03-19T07:57:23.388Z,5.90
2018-03-19T07:59:51.384Z,5.87
2018-03-19T08:02:18.884Z,6.70
2018-03-19T08:04:46.383Z,5.85
2018-03-19T08:07:13.905Z,8.48
2018-03-19T08:09:41.409Z,6.20
2018-03-19T08:12:08.917Z,7.50
2018-03-19T08:14:37.254Z,4.40
2018-03-19T08:17:04.760Z,6.10
2018-03-19T08:19:33.053Z,6.53
2018-03-19T08:22:00.565Z,6.03
2018-03-19T08:24:28.120Z,7.18
2018-03-19T08:27:07.446Z,5.00
2018-03-19T08:29:35.007Z,4.65
2018-03-19T08:32:02.533Z,5.62
2018-03-19T08:34:30.039Z,5.75
2018-03-19T08:36:57.577Z,5.25
2018-03-19T08:39:25.099Z,5.30
2018-03-19T08:41:52.690Z,8.05
2018-03-19T08:44:20.979Z,7.97
2018-03-19T08:46:48.524Z,7.85
2018-03-19T08:49:16.053Z,5.18
2018-03-19T08:51:44.218Z,6.03
2018-03-19T08:54:11.797Z,5.78
2018-03-19T08:56:41.771Z,6.75
2018-03-19T08:59:09.325Z,7.10
2018-03-19T09:01:36.895Z,7.30
2018-03-19T09:04:04.453Z,6.10
2018-03-19T09:06:32.772Z,4.67
2018-03-19T09:09:00.307Z,6.68
2018-03-19T09:11:27.857Z,7.20
2018-03-19T09:13:56.183Z,5.33
2018-03-19T09:16:23.669Z,6.17
2018-03-19T09:18:51.256Z,6.50
2018-03-19T09:21:18.762Z,6.75
2018-03-19T09:23:46.282Z,7.43
2018-03-19T09:26:13.795Z,6.73
2018-03-19T09:28:41.390Z,7.20
2018-03-19T09:31:08.923Z,7.00
2018-03-19T09:33:36.441Z,6.17
2018-03-19T09:36:03.979Z,7.57
2018-03-19T09:38:31.523Z,7.67
2018-03-19T09:40:59.096Z,7.37
2018-03-19T09:43:26.622Z,6.30
2018-03-19T09:45:54.129Z,6.30
2018-03-19T09:48:21.618Z,7.57
2018-03-19T09:50:50.364Z,7.07
2018-03-19T09:53:17.870Z,6.17
2018-03-19T09:55:45.382Z,7.00
2018-03-19T09:58:12.892Z,8.03
2018-03-19T10:00:40.410Z,6.40
2018-03-19T10:03:07.930Z,5.37
2018-03-19T10:05:36.191Z,6.50
2018-03-19T10:08:03.679Z,5.73
2018-03-19T10:10:31.185Z,7.63
2018-03-19T10:12:58.723Z,5.53
2018-03-19T10:15:26.216Z,6.50
2018-03-19T10:17:53.741Z,6.40
2018-03-19T10:20:21.250Z,5.40
2018-03-19T10:22:48.741Z,7.10
2018-03-19T10:25:16.241Z,7.40
2018-03-19T10:27:43.744Z,7.23
2018-03-19T10:30:11.266Z,7.37
2018-03-19T10:32:38.769Z,7.33
2018-03-19T10:35:06.288Z,6.83
2018-03-19T10:37:33.784Z,8.93
2018-03-19T10:40:01.288Z,6.57
2018-03-19T10:42:28.835Z,7.27
2018-03-19T10:44:56.329Z,8.47
2018-03-19T10:47:24.589Z,8.70
2018-03-19T10:49:52.080Z,6.57
2018-03-19T10:52:20.356Z,8.93
2018-03-19T10:54:48.621Z,8.50
2018-03-19T10:57:16.976Z,7.97
2018-03-19T10:59:44.500Z,7.87
2018-03-19T11:02:15.800Z,7.87
2018-03-19T11:04:50.263Z,5.93
2018-03-19T11:07:23.537Z,8.03
2018-03-19T11:09:51.042Z,6.20
2018-03-19T11:12:18.580Z,8.03
2018-03-19T11:14:47.111Z,8.00
2018-03-19T11:17:15.414Z,6.60
2018-03-19T11:19:43.922Z,8.07
2018-03-19T11:22:11.457Z,7.60
2018-03-19T11:24:39.696Z,8.53
2018-03-19T11:27:08.053Z,8.00
2018-03-19T11:29:36.359Z,8.70
2018-03-19T11:32:05.018Z,6.73
2018-03-19T11:34:32.524Z,7.60
2018-03-19T11:37:00.049Z,7.40
2018-03-19T11:39:27.578Z,7.30
2018-03-19T11:41:55.084Z,7.03
2018-03-19T11:44:23.329Z,6.90
2018-03-19T11:46:50.848Z,7.50
2018-03-19T11:49:18.332Z,8.27
2018-03-19T11:51:46.624Z,7.13
2018-03-19T11:54:14.154Z,7.20
2018-03-19T11:56:43.475Z,7.70
2018-03-19T11:59:12.335Z,8.13
2018-03-19T12:01:40.491Z,9.20
2018-03-19T12:04:08.032Z,7.80
2018-03-19T12:06:35.522Z,8.57
2018-03-19T12:09:04.500Z,9.53
2018-03-19T12:11:32.905Z,10.03
2018-03-19T12:14:01.209Z,8.20
2018-03-19T12:16:28.730Z,9.10
2018-03-19T12:18:56.298Z,9.00
2018-03-19T12:21:23.801Z,8.27
2018-03-19T12:23:52.081Z,6.93
2018-03-19T12:26:20.426Z,9.03
2018-03-19T12:28:47.932Z,7.63
2018-03-19T12:31:15.452Z,8.30
2018-03-19T12:33:44.192Z,8.73
2018-03-19T12:36:12.438Z,11.43
2018-03-19T12:38:39.957Z,10.70
2018-03-19T12:41:07.483Z,17.77
2018-03-19T12:43:35.021Z,10.37
2018-03-19T12:46:04.069Z,9.43
2018-03-19T12:48:32.561Z,8.30
2018-03-19T12:51:00.077Z,8.03
2018-03-19T12:53:27.611Z,10.30
2018-03-19T12:55:55.933Z,8.33
2018-03-19T12:58:23.447Z,8.70
2018-03-19T13:00:50.992Z,8.60
2018-03-19T13:03:21.915Z,8.57
2018-03-19T13:05:49.428Z,8.27
2018-03-19T13:08:16.927Z,16.73
2018-03-19T13:10:44.415Z,7.70
2018-03-19T13:13:12.714Z,8.40
2018-03-19T13:15:40.220Z,12.73
2018-03-19T13:18:07.767Z,9.30
2018-03-19T13:20:35.256Z,9.63
2018-03-19T13:23:03.536Z,8.37
2018-03-19T13:25:31.810Z,9.47
2018-03-19T13:27:59.338Z,8.70
2018-03-19T13:30:27.642Z,8.73
2018-03-19T13:33:01.755Z,9.10
2018-03-19T13:35:31.003Z,9.40
2018-03-19T13:38:00.810Z,9.70
2018-03-19T13:40:32.738Z,8.83
2018-03-19T13:43:00.280Z,8.70
2018-03-19T13:45:27.770Z,9.53
2018-03-19T13:47:55.297Z,8.80
2018-03-19T13:50:22.822Z,9.60
2018-03-19T13:52:50.302Z,8.87
2018-03-19T13:55:17.786Z,9.07
2018-03-19T13:57:45.330Z,8.87
2018-03-19T14:00:12.834Z,9.40
2018-03-19T14:02:40.361Z,9.57
2018-03-19T14:05:07.887Z,6.50
2018-03-19T14:07:35.436Z,10.00
2018-03-19T14:10:04.481Z,11.07
2018-03-19T14:12:32.819Z,9.30
2018-03-19T14:15:01.973Z,9.00
2018-03-19T14:17:29.483Z,9.50
2018-03-19T14:19:56.975Z,9.53
2018-03-19T14:22:24.628Z,10.40
2018-03-19T14:24:52.010Z,10.13
2018-03-19T14:27:19.623Z,10.03
2018-03-19T14:29:47.490Z,10.97
2018-03-19T14:32:15.006Z,9.60
2018-03-19T14:34:44.378Z,8.80
2018-03-19T14:37:11.916Z,11.13
2018-03-19T14:39:39.428Z,7.90
2018-03-19T14:42:06.919Z,8.27
2018-03-19T14:44:35.216Z,7.63
2018-03-19T14:47:03.724Z,9.40
2018-03-19T14:49:31.265Z,6.63
2018-03-19T14:51:59.030Z,10.70
2018-03-19T14:54:26.542Z,10.53
2018-03-19T14:56:57.798Z,9.93
2018-03-19T14:59:25.367Z,9.40
2018-03-19T15:01:52.889Z,9.30
2018-03-19T15:04:20.411Z,9.17
2018-03-19T15:06:48.178Z,9.80
2018-03-19T15:09:16.403Z,9.37
2018-03-19T15:11:43.919Z,8.20
2018-03-19T15:14:11.470Z,9.63
2018-03-19T15:16:39.747Z,8.83
2018-03-19T15:19:07.277Z,8.57
2018-03-19T15:21:35.854Z,9.07
2018-03-19T15:24:03.383Z,9.87
2018-03-19T15:26:30.885Z,8.90
2018-03-19T15:28:59.147Z,9.57
2018-03-19T15:31:26.656Z,9.40
2018-03-19T15:33:54.130Z,9.80
2018-03-19T15:36:21.829Z,11.57
2018-03-19T15:38:49.306Z,10.73
2018-03-19T15:41:16.828Z,8.30
2018-03-19T15:43:44.331Z,11.50
2018-03-19T15:46:11.835Z,10.10
2018-03-19T15:48:39.347Z,9.37
2018-03-19T15:51:06.863Z,13.53
2018-03-19T15:53:34.375Z,9.90
2018-03-19T15:56:01.928Z,13.37
2018-03-19T15:58:29.471Z,11.23
2018-03-19T16:00:57.009Z,11.10
2018-03-19T16:03:24.509Z,11.87
2018-03-19T16:05:52.329Z,8.77
2018-03-19T16:08:19.809Z,9.50
2018-03-19T16:10:48.078Z,7.93
2018-03-19T16:13:16.360Z,7.97
2018-03-19T16:15:44.619Z,7.77
2018-03-19T16:18:12.142Z,7.47
2018-03-19T16:20:39.680Z,9.10
2018-03-19T16:23:07.996Z,7.97
2018-03-19T16:25:35.528Z,7.93
2018-03-19T16:28:03.080Z,8.07
2018-03-19T16:30:30.635Z,7.73
2018-03-19T16:32:58.139Z,8.80
2018-03-19T16:35:25.627Z,8.73
2018-03-19T16:37:53.128Z,7.47
2018-03-19T16:40:20.609Z,10.40
2018-03-19T16:42:48.118Z,8.53
2018-03-19T16:45:15.629Z,10.30
2018-03-19T16:47:43.121Z,10.13
2018-03-19T16:50:11.626Z,8.80
2018-03-19T16:52:39.228Z,9.47
2018-03-19T16:55:07.147Z,9.80
2018-03-19T16:57:34.674Z,9.33
2018-03-19T17:00:03.258Z,10.00
2018-03-19T17:02:30.796Z,8.97
2018-03-19T17:04:58.286Z,8.77
2018-03-19T17:07:25.814Z,8.30
2018-03-19T17:09:53.328Z,8.93
2018-03-19T17:12:20.834Z,7.60
2018-03-19T17:14:48.378Z,8.37
2018-03-19T17:17:15.875Z,7.67
2018-03-19T17:19:44.985Z,6.90
2018-03-19T17:22:12.513Z,7.67
2018-03-19T17:24:40.896Z,7.10
2018-03-19T17:27:10.041Z,7.97
2018-03-19T17:29:38.465Z,7.87
2018-03-19T17:32:06.774Z,8.43
2018-03-19T17:34:35.724Z,8.23
2018-03-19T17:37:04.013Z,7.00
2018-03-19T17:39:32.320Z,6.87
2018-03-19T17:41:59.862Z,7.23
2018-03-19T17:44:27.397Z,8.00
2018-03-19T17:46:55.671Z,7.97
2018-03-19T17:49:23.971Z,8.13
2018-03-19T17:51:52.215Z,7.50
2018-03-19T17:54:19.780Z,7.77
2018-03-19T17:56:47.318Z,7.80
2018-03-19T17:59:14.847Z,8.03
2018-03-19T18:01:42.385Z,7.80
2018-03-19T18:04:09.901Z,7.32
2018-03-19T18:06:37.426Z,8.13
2018-03-19T18:09:05.237Z,7.10
2018-03-19T18:11:32.743Z,6.70
2018-03-19T18:14:00.348Z,7.50
2018-03-19T18:16:27.883Z,7.07
2018-03-19T18:18:55.402Z,5.90
2018-03-19T18:21:22.950Z,6.15
2018-03-19T18:23:50.526Z,6.87
2018-03-19T18:26:18.884Z,6.60
2018-03-19T18:28:46.403Z,6.40
2018-03-19T18:31:13.944Z,6.30
2018-03-19T18:33:41.540Z,7.07
2018-03-19T18:36:09.152Z,4.80
2018-03-19T18:38:37.014Z,5.60
2018-03-19T18:41:05.499Z,5.53
2018-03-19T18:43:33.481Z,6.15
2018-03-19T18:46:01.096Z,5.85
2018-03-19T18:48:28.648Z,5.60
2018-03-19T18:50:56.180Z,4.97
2018-03-19T18:53:23.719Z,6.00
2018-03-19T18:55:51.453Z,6.10
2018-03-19T18:58:19.238Z,6.60
2018-03-19T19:00:46.691Z,5.65
2018-03-19T19:03:14.206Z,5.10
2018-03-19T19:05:42.488Z,5.10
2018-03-19T19:08:10.013Z,5.57
2018-03-19T19:10:37.855Z,5.50
2018-03-19T19:13:05.349Z,5.85
2018-03-19T19:15:32.900Z,6.10
2018-03-19T19:18:01.158Z,5.32
2018-03-19T19:20:29.451Z,6.03
2018-03-19T19:22:57.002Z,5.57
2018-03-19T19:25:24.541Z,6.75
2018-03-19T19:27:52.101Z,5.78
2018-03-19T19:30:19.620Z,6.55
2018-03-19T19:32:47.161Z,6.07
2018-03-19T19:35:15.554Z,5.45
2018-03-19T19:37:43.237Z,5.62
2018-03-19T19:40:12.346Z,5.12
2018-03-19T19:42:40.595Z,5.93
2018-03-19T19:45:08.116Z,5.55
2018-03-19T19:47:37.343Z,5.20
2018-03-19T19:50:04.861Z,5.53
2018-03-19T19:52:33.179Z,5.65
2018-03-19T19:55:00.734Z,5.97
2018-03-19T19:57:28.288Z,6.32
2018-03-19T19:59:56.555Z,5.70
2018-03-19T20:02:24.257Z,5.43
2018-03-19T20:04:51.802Z,6.47
2018-03-19T20:07:19.337Z,7.37
2018-03-19T20:09:46.889Z,5.95
2018-03-19T20:12:15.117Z,5.55
2018-03-19T20:14:42.642Z,5.15
2018-03-19T20:17:10.185Z,5.43
2018-03-19T20:19:37.687Z,4.82
2018-03-19T20:22:05.229Z,4.90
2018-03-19T20:24:32.787Z,4.87
2018-03-19T20:27:00.348Z,3.78
2018-03-19T20:29:28.610Z,5.30
2018-03-19T20:31:56.905Z,6.53
2018-03-19T20:34:24.449Z,5.32
2018-03-19T20:36:52.010Z,5.65
2018-03-19T20:39:20.291Z,6.35
2018-03-19T20:41:47.819Z,6.70
2018-03-19T20:44:15.312Z,5.50
2018-03-19T20:46:42.823Z,4.93
2018-03-19T20:49:10.404Z,6.60
2018-03-19T20:51:37.860Z,5.50
2018-03-19T20:54:06.153Z,4.25
2018-03-19T20:56:34.594Z,5.93
2018-03-19T20:59:02.116Z,5.37
2018-03-19T21:01:30.451Z,4.22
2018-03-19T21:03:57.951Z,6.53
2018-03-19T21:06:25.486Z,4.05
2018-03-19T21:08:53.796Z,5.40
2018-03-19T21:11:21.299Z,4.65
2018-03-19T21:13:48.842Z,4.05
2018-03-19T21:16:16.349Z,5.50
2018-03-19T21:18:43.881Z,5.22
2018-03-19T21:21:12.168Z,5.28
2018-03-19T21:23:39.717Z,6.00
2018-03-19T21:26:07.993Z,5.90
2018-03-19T21:28:35.528Z,5.30
2018-03-19T21:31:03.095Z,5.65
2018-03-19T21:33:30.621Z,4.78
2018-03-19T21:35:58.139Z,4.90
2018-03-19T21:38:26.433Z,3.83
2018-03-19T21:40:53.939Z,4.72
2018-03-19T21:43:23.081Z,6.20
2018-03-19T21:45:50.590Z,7.43
2018-03-19T21:48:18.100Z,5.50
2018-03-19T21:50:45.645Z,4.97
2018-03-19T21:53:13.925Z,6.82
2018-03-19T21:55:42.203Z,5.10
2018-03-19T21:58:09.724Z,3.67
2018-03-19T22:00:37.224Z,4.65
2018-03-19T22:03:04.753Z,5.85
2018-03-19T22:05:32.263Z,4.70
2018-03-19T22:08:00.466Z,5.78
2018-03-19T22:10:28.750Z,4.93
2018-03-19T22:12:56.237Z,5.50
2018-03-19T22:15:23.788Z,5.70
2018-03-19T22:17:52.224Z,5.53
2018-03-19T22:20:19.744Z,5.05
2018-03-19T22:22:47.328Z,5.10
2018-03-19T22:25:19.285Z,5.95
2018-03-19T22:27:46.813Z,5.20
2018-03-19T22:30:14.307Z,5.97
2018-03-19T22:32:41.807Z,5.47
2018-03-19T22:35:09.288Z,4.57
2018-03-19T22:37:37.561Z,5.68
2018-03-19T22:40:05.836Z,5.80
2018-03-19T22:42:34.107Z,6.45
2018-03-19T22:45:02.417Z,5.65
2018-03-19T22:47:29.904Z,6.37
2018-03-19T22:49:57.394Z,5.35
2018-03-19T22:52:24.903Z,6.62
2018-03-19T22:54:53.788Z,6.22
2018-03-19T22:57:21.307Z,6.47
2018-03-19T22:59:49.595Z,6.85
2018-03-19T23:02:17.138Z,6.68
2018-03-19T23:04:55.999Z,5.60
2018-03-19T23:07:23.502Z,7.35
2018-03-19T23:09:51.021Z,7.70
2018-03-19T23:12:18.511Z,7.53
2018-03-19T23:14:46.002Z,6.85
2018-03-19T23:17:14.283Z,8.57
2018-03-19T23:19:42.556Z,8.25
2018-03-19T23:22:10.069Z,7.72
2018-03-19T23:24:37.598Z,6.72
2018-03-19T23:27:05.865Z,7.25
2018-03-19T23:29:33.602Z,6.20
2018-03-19T23:32:01.107Z,6.03
2018-03-19T23:34:28.618Z,6.93
2018-03-19T23:36:56.876Z,7.18
2018-03-19T23:39:24.391Z,6.60
2018-03-19T23:41:51.882Z,6.50
2018-03-19T23:44:19.363Z,7.32
2018-03-19T23:46:47.906Z,5.65
2018-03-19T23:49:15.412Z,6.70
2018-03-19T23:51:43.648Z,6.30
2018-03-19T23:54:11.157Z,6.07
2018-03-19T23:56:38.670Z,6.15
2018-03-19T23:59:06.176Z,6.82
